sensor_id;sensor_type;location;lat;lon;timestamp;P1;durP1;ratioP1;P2;durP2;ratioP2
27424;SDS011;15244;49.088;11.886;2023-07-20T00:02:49;3.67;;;2.30;;
27424;SDS011;15244;49.088;11.886;2023-07-20T00:07:56;2.97;;;2.78;;
27424;SDS011;15244;49.088;11.886;2023-07-20T00:12:58;5.22;;;3.13;;
27424;SDS011;15244;49.088;11.886;2023-07-20T00:18:02;3.03;;;2.70;;
27424;SDS011;15244;49.088;11.886;2023-07-20T00:23:06;3.97;;;2.47;;
27424;SDS011;15244;49.088;11.886;2023-07-20T00:28:10;2.65;;;2.45;;
27424;SDS011;15244;49.088;11.886;2023-07-20T00:33:19;4.85;;;2.90;;
27424;SDS011;15244;49.088;11.886;2023-07-20T00:38:20;3.47;;;2.78;;
27424;SDS011;15244;49.088;11.886;2023-07-20T00:43:28;4.17;;;2.60;;
27424;SDS011;15244;49.088;11.886;2023-07-20T00:48:32;2.58;;;2.38;;
27424;SDS011;15244;49.088;11.886;2023-07-20T00:53:34;2.72;;;2.53;;
27424;SDS011;15244;49.088;11.886;2023-07-20T00:58:38;3.33;;;2.75;;
27424;SDS011;15244;49.088;11.886;2023-07-20T01:03:42;2.92;;;2.50;;
27424;SDS011;15244;49.088;11.886;2023-07-20T01:14:00;3.28;;;2.80;;
27424;SDS011;15244;49.088;11.886;2023-07-20T01:19:04;4.60;;;2.83;;
27424;SDS011;15244;49.088;11.886;2023-07-20T01:29:42;5.57;;;3.88;;
27424;SDS011;15244;49.088;11.886;2023-07-20T01:35:07;3.95;;;3.03;;
27424;SDS011;15244;49.088;11.886;2023-07-20T01:40:11;3.35;;;2.90;;
27424;SDS011;15244;49.088;11.886;2023-07-20T01:45:18;4.60;;;3.53;;
27424;SDS011;15244;49.088;11.886;2023-07-20T01:50:25;3.97;;;2.85;;
27424;SDS011;15244;49.088;11.886;2023-07-20T01:55:29;3.83;;;2.92;;
27424;SDS011;15244;49.088;11.886;2023-07-20T02:00:36;2.75;;;2.55;;
27424;SDS011;15244;49.088;11.886;2023-07-20T02:05:43;3.15;;;2.85;;
27424;SDS011;15244;49.088;11.886;2023-07-20T02:10:49;3.13;;;2.85;;
27424;SDS011;15244;49.088;11.886;2023-07-20T02:15:59;3.35;;;2.95;;
27424;SDS011;15244;49.088;11.886;2023-07-20T02:21:01;3.38;;;2.88;;
27424;SDS011;15244;49.088;11.886;2023-07-20T02:26:16;2.93;;;2.43;;
27424;SDS011;15244;49.088;11.886;2023-07-20T02:31:18;3.95;;;2.70;;
27424;SDS011;15244;49.088;11.886;2023-07-20T02:41:30;3.53;;;2.63;;
27424;SDS011;15244;49.088;11.886;2023-07-20T02:46:36;4.57;;;2.97;;
27424;SDS011;15244;49.088;11.886;2023-07-20T02:51:40;2.83;;;2.63;;
27424;SDS011;15244;49.088;11.886;2023-07-20T02:56:45;3.40;;;3.08;;
27424;SDS011;15244;49.088;11.886;2023-07-20T03:01:48;3.33;;;2.80;;
27424;SDS011;15244;49.088;11.886;2023-07-20T03:06:53;3.17;;;2.80;;
27424;SDS011;15244;49.088;11.886;2023-07-20T03:11:57;2.50;;;2.30;;
27424;SDS011;15244;49.088;11.886;2023-07-20T03:17:00;2.80;;;2.60;;
27424;SDS011;15244;49.088;11.886;2023-07-20T03:22:02;3.15;;;2.50;;
27424;SDS011;15244;49.088;11.886;2023-07-20T03:27:06;2.45;;;2.25;;
27424;SDS011;15244;49.088;11.886;2023-07-20T03:32:17;2.42;;;2.22;;
27424;SDS011;15244;49.088;11.886;2023-07-20T03:37:19;3.58;;;2.65;;
27424;SDS011;15244;49.088;11.886;2023-07-20T03:42:23;3.78;;;2.80;;
27424;SDS011;15244;49.088;11.886;2023-07-20T03:47:24;2.78;;;2.40;;
27424;SDS011;15244;49.088;11.886;2023-07-20T03:52:26;4.30;;;2.33;;
27424;SDS011;15244;49.088;11.886;2023-07-20T03:57:28;2.53;;;2.33;;
27424;SDS011;15244;49.088;11.886;2023-07-20T04:02:31;3.75;;;2.75;;
27424;SDS011;15244;49.088;11.886;2023-07-20T04:07:33;5.15;;;2.75;;
27424;SDS011;15244;49.088;11.886;2023-07-20T04:12:35;4.10;;;2.78;;
27424;SDS011;15244;49.088;11.886;2023-07-20T04:17:39;2.42;;;2.20;;
27424;SDS011;15244;49.088;11.886;2023-07-20T04:22:42;3.45;;;2.60;;
27424;SDS011;15244;49.088;11.886;2023-07-20T04:27:46;3.05;;;2.72;;
27424;SDS011;15244;49.088;11.886;2023-07-20T04:32:48;4.75;;;2.58;;
27424;SDS011;15244;49.088;11.886;2023-07-20T04:37:56;2.50;;;2.30;;
27424;SDS011;15244;49.088;11.886;2023-07-20T04:43:00;2.40;;;2.20;;
27424;SDS011;15244;49.088;11.886;2023-07-20T04:48:01;2.78;;;2.40;;
27424;SDS011;15244;49.088;11.886;2023-07-20T04:53:05;3.13;;;2.55;;
27424;SDS011;15244;49.088;11.886;2023-07-20T04:58:07;3.08;;;2.45;;
27424;SDS011;15244;49.088;11.886;2023-07-20T05:03:12;3.50;;;2.50;;
27424;SDS011;15244;49.088;11.886;2023-07-20T05:08:14;6.53;;;3.20;;
27424;SDS011;15244;49.088;11.886;2023-07-20T05:13:16;3.28;;;2.20;;
27424;SDS011;15244;49.088;11.886;2023-07-20T05:18:18;3.20;;;2.67;;
27424;SDS011;15244;49.088;11.886;2023-07-20T05:23:28;4.82;;;2.70;;
27424;SDS011;15244;49.088;11.886;2023-07-20T05:28:31;4.60;;;2.55;;
27424;SDS011;15244;49.088;11.886;2023-07-20T05:33:35;5.35;;;2.72;;
27424;SDS011;15244;49.088;11.886;2023-07-20T05:38:38;5.03;;;3.22;;
27424;SDS011;15244;49.088;11.886;2023-07-20T05:43:44;3.28;;;2.97;;
27424;SDS011;15244;49.088;11.886;2023-07-20T05:48:48;4.00;;;3.45;;
27424;SDS011;15244;49.088;11.886;2023-07-20T05:53:55;4.90;;;3.88;;
27424;SDS011;15244;49.088;11.886;2023-07-20T05:58:56;3.75;;;3.42;;
27424;SDS011;15244;49.088;11.886;2023-07-20T06:04:00;4.43;;;3.53;;
27424;SDS011;15244;49.088;11.886;2023-07-20T06:09:07;5.63;;;3.75;;
27424;SDS011;15244;49.088;11.886;2023-07-20T06:19:14;3.75;;;3.40;;
27424;SDS011;15244;49.088;11.886;2023-07-20T06:24:20;3.58;;;3.03;;
27424;SDS011;15244;49.088;11.886;2023-07-20T06:29:27;3.80;;;3.42;;
27424;SDS011;15244;49.088;11.886;2023-07-20T06:34:33;4.22;;;3.83;;
27424;SDS011;15244;49.088;11.886;2023-07-20T06:39:38;4.90;;;4.03;;
27424;SDS011;15244;49.088;11.886;2023-07-20T06:44:42;4.13;;;3.75;;
27424;SDS011;15244;49.088;11.886;2023-07-20T06:49:46;4.45;;;4.05;;
27424;SDS011;15244;49.088;11.886;2023-07-20T06:54:48;5.07;;;4.03;;
27424;SDS011;15244;49.088;11.886;2023-07-20T07:00:00;5.90;;;4.00;;
27424;SDS011;15244;49.088;11.886;2023-07-20T07:05:05;4.30;;;4.00;;
27424;SDS011;15244;49.088;11.886;2023-07-20T07:10:15;4.13;;;3.38;;
27424;SDS011;15244;49.088;11.886;2023-07-20T07:15:22;3.63;;;3.35;;
27424;SDS011;15244;49.088;11.886;2023-07-20T07:20:29;4.10;;;3.63;;
27424;SDS011;15244;49.088;11.886;2023-07-20T07:25:33;4.32;;;3.75;;
27424;SDS011;15244;49.088;11.886;2023-07-20T07:30:37;4.70;;;3.80;;
27424;SDS011;15244;49.088;11.886;2023-07-20T07:35:41;3.20;;;3.00;;
27424;SDS011;15244;49.088;11.886;2023-07-20T07:40:46;4.82;;;3.25;;
27424;SDS011;15244;49.088;11.886;2023-07-20T07:45:47;4.22;;;3.78;;
27424;SDS011;15244;49.088;11.886;2023-07-20T07:50:53;3.08;;;2.80;;
27424;SDS011;15244;49.088;11.886;2023-07-20T07:56:02;3.92;;;2.92;;
27424;SDS011;15244;49.088;11.886;2023-07-20T08:01:07;2.88;;;2.67;;
27424;SDS011;15244;49.088;11.886;2023-07-20T08:06:15;3.08;;;2.20;;
27424;SDS011;15244;49.088;11.886;2023-07-20T08:11:17;5.50;;;2.35;;
27424;SDS011;15244;49.088;11.886;2023-07-20T08:16:24;2.60;;;2.17;;
27424;SDS011;15244;49.088;11.886;2023-07-20T08:21:28;3.17;;;2.13;;
27424;SDS011;15244;49.088;11.886;2023-07-20T08:26:30;2.88;;;2.10;;
27424;SDS011;15244;49.088;11.886;2023-07-20T08:31:32;2.80;;;1.52;;
27424;SDS011;15244;49.088;11.886;2023-07-20T08:36:38;2.58;;;1.63;;
27424;SDS011;15244;49.088;11.886;2023-07-20T08:41:42;2.28;;;1.95;;
27424;SDS011;15244;49.088;11.886;2023-07-20T08:46:48;3.20;;;1.80;;
27424;SDS011;15244;49.088;11.886;2023-07-20T08:51:50;2.97;;;1.63;;
27424;SDS011;15244;49.088;11.886;2023-07-20T08:56:56;1.58;;;1.45;;
27424;SDS011;15244;49.088;11.886;2023-07-20T09:01:59;3.22;;;1.77;;
27424;SDS011;15244;49.088;11.886;2023-07-20T09:07:01;3.08;;;1.58;;
27424;SDS011;15244;49.088;11.886;2023-07-20T09:12:05;1.50;;;1.40;;
27424;SDS011;15244;49.088;11.886;2023-07-20T09:17:21;2.08;;;1.00;;
27424;SDS011;15244;49.088;11.886;2023-07-20T09:22:30;1.95;;;1.50;;
27424;SDS011;15244;49.088;11.886;2023-07-20T09:27:44;1.60;;;1.50;;
27424;SDS011;15244;49.088;11.886;2023-07-20T09:32:57;1.40;;;0.90;;
27424;SDS011;15244;49.088;11.886;2023-07-20T09:38:00;1.63;;;1.30;;
27424;SDS011;15244;49.088;11.886;2023-07-20T09:43:09;2.03;;;1.23;;
27424;SDS011;15244;49.088;11.886;2023-07-20T09:48:14;1.42;;;1.17;;
27424;SDS011;15244;49.088;11.886;2023-07-20T09:53:26;1.02;;;1.00;;
27424;SDS011;15244;49.088;11.886;2023-07-20T09:58:28;1.67;;;1.02;;
27424;SDS011;15244;49.088;11.886;2023-07-20T10:03:36;1.50;;;1.40;;
27424;SDS011;15244;49.088;11.886;2023-07-20T10:08:41;1.83;;;1.40;;
27424;SDS011;15244;49.088;11.886;2023-07-20T10:13:46;4.95;;;1.38;;
27424;SDS011;15244;49.088;11.886;2023-07-20T10:24:18;1.20;;;1.10;;
27424;SDS011;15244;49.088;11.886;2023-07-20T10:29:22;1.58;;;1.40;;
27424;SDS011;15244;49.088;11.886;2023-07-20T10:34:25;1.75;;;1.38;;
27424;SDS011;15244;49.088;11.886;2023-07-20T10:39:28;1.60;;;1.40;;
27424;SDS011;15244;49.088;11.886;2023-07-20T10:44:38;1.87;;;1.53;;
27424;SDS011;15244;49.088;11.886;2023-07-20T10:49:59;1.50;;;1.40;;
27424;SDS011;15244;49.088;11.886;2023-07-20T10:55:10;2.05;;;1.52;;
27424;SDS011;15244;49.088;11.886;2023-07-20T11:00:18;1.58;;;1.48;;
27424;SDS011;15244;49.088;11.886;2023-07-20T11:16:34;1.08;;;0.98;;
27424;SDS011;15244;49.088;11.886;2023-07-20T11:21:43;1.35;;;1.10;;
27424;SDS011;15244;49.088;11.886;2023-07-20T11:27:03;1.02;;;1.00;;
27424;SDS011;15244;49.088;11.886;2023-07-20T11:32:05;1.17;;;1.17;;
27424;SDS011;15244;49.088;11.886;2023-07-20T11:37:07;1.60;;;1.20;;
27424;SDS011;15244;49.088;11.886;2023-07-20T11:42:12;1.02;;;0.93;;
27424;SDS011;15244;49.088;11.886;2023-07-20T11:47:17;3.45;;;1.50;;
27424;SDS011;15244;49.088;11.886;2023-07-20T11:52:28;1.00;;;0.95;;
27424;SDS011;15244;49.088;11.886;2023-07-20T11:57:35;1.48;;;1.00;;
27424;SDS011;15244;49.088;11.886;2023-07-20T12:02:37;0.90;;;0.90;;
27424;SDS011;15244;49.088;11.886;2023-07-20T12:07:44;1.05;;;0.93;;
27424;SDS011;15244;49.088;11.886;2023-07-20T12:12:54;1.00;;;1.00;;
27424;SDS011;15244;49.088;11.886;2023-07-20T12:17:56;1.33;;;1.17;;
27424;SDS011;15244;49.088;11.886;2023-07-20T12:23:00;1.10;;;1.00;;
27424;SDS011;15244;49.088;11.886;2023-07-20T12:28:06;1.10;;;1.00;;
27424;SDS011;15244;49.088;11.886;2023-07-20T12:33:09;1.53;;;1.13;;
27424;SDS011;15244;49.088;11.886;2023-07-20T12:38:21;2.90;;;1.25;;
27424;SDS011;15244;49.088;11.886;2023-07-20T12:43:25;1.02;;;0.90;;
27424;SDS011;15244;49.088;11.886;2023-07-20T12:48:26;1.10;;;1.05;;
27424;SDS011;15244;49.088;11.886;2023-07-20T12:53:31;0.75;;;0.70;;
27424;SDS011;15244;49.088;11.886;2023-07-20T12:58:35;1.83;;;0.80;;
27424;SDS011;15244;49.088;11.886;2023-07-20T13:03:41;1.08;;;1.00;;
27424;SDS011;15244;49.088;11.886;2023-07-20T13:08:47;1.33;;;1.00;;
27424;SDS011;15244;49.088;11.886;2023-07-20T13:13:49;1.05;;;0.95;;
27424;SDS011;15244;49.088;11.886;2023-07-20T13:18:52;1.13;;;0.85;;
27424;SDS011;15244;49.088;11.886;2023-07-20T13:23:54;0.85;;;0.85;;
27424;SDS011;15244;49.088;11.886;2023-07-20T13:29:02;1.65;;;0.75;;
27424;SDS011;15244;49.088;11.886;2023-07-20T13:34:06;1.00;;;0.90;;
27424;SDS011;15244;49.088;11.886;2023-07-20T13:39:08;0.88;;;0.88;;
27424;SDS011;15244;49.088;11.886;2023-07-20T13:44:10;0.90;;;0.90;;
27424;SDS011;15244;49.088;11.886;2023-07-20T13:49:14;0.98;;;0.77;;
27424;SDS011;15244;49.088;11.886;2023-07-20T13:54:24;1.02;;;0.80;;
27424;SDS011;15244;49.088;11.886;2023-07-20T13:59:33;0.82;;;0.82;;
27424;SDS011;15244;49.088;11.886;2023-07-20T14:04:40;1.88;;;0.75;;
27424;SDS011;15244;49.088;11.886;2023-07-20T14:09:44;0.63;;;0.63;;
27424;SDS011;15244;49.088;11.886;2023-07-20T14:14:51;3.10;;;1.00;;
27424;SDS011;15244;49.088;11.886;2023-07-20T14:19:54;1.00;;;0.90;;
27424;SDS011;15244;49.088;11.886;2023-07-20T14:24:56;1.08;;;0.82;;
27424;SDS011;15244;49.088;11.886;2023-07-20T14:30:02;0.80;;;0.80;;
27424;SDS011;15244;49.088;11.886;2023-07-20T14:35:06;2.38;;;0.85;;
27424;SDS011;15244;49.088;11.886;2023-07-20T14:40:11;1.23;;;0.93;;
27424;SDS011;15244;49.088;11.886;2023-07-20T14:45:15;1.13;;;0.70;;
27424;SDS011;15244;49.088;11.886;2023-07-20T14:50:20;1.17;;;1.08;;
27424;SDS011;15244;49.088;11.886;2023-07-20T14:55:25;0.80;;;0.80;;
27424;SDS011;15244;49.088;11.886;2023-07-20T15:00:29;0.60;;;0.60;;
27424;SDS011;15244;49.088;11.886;2023-07-20T15:05:37;0.90;;;0.73;;
27424;SDS011;15244;49.088;11.886;2023-07-20T15:10:44;0.95;;;0.90;;
27424;SDS011;15244;49.088;11.886;2023-07-20T15:15:48;1.70;;;0.85;;
27424;SDS011;15244;49.088;11.886;2023-07-20T15:20:57;1.83;;;0.85;;
27424;SDS011;15244;49.088;11.886;2023-07-20T15:26:01;2.10;;;1.00;;
27424;SDS011;15244;49.088;11.886;2023-07-20T15:31:06;0.88;;;0.85;;
27424;SDS011;15244;49.088;11.886;2023-07-20T15:36:08;1.02;;;0.93;;
27424;SDS011;15244;49.088;11.886;2023-07-20T15:41:12;1.02;;;1.02;;
27424;SDS011;15244;49.088;11.886;2023-07-20T15:51:48;0.82;;;0.82;;
27424;SDS011;15244;49.088;11.886;2023-07-20T15:56:49;0.95;;;0.85;;
27424;SDS011;15244;49.088;11.886;2023-07-20T16:01:57;1.65;;;1.00;;
27424;SDS011;15244;49.088;11.886;2023-07-20T16:07:01;0.60;;;0.60;;
27424;SDS011;15244;49.088;11.886;2023-07-20T16:12:05;0.80;;;0.80;;
27424;SDS011;15244;49.088;11.886;2023-07-20T16:17:12;0.95;;;0.77;;
27424;SDS011;15244;49.088;11.886;2023-07-20T16:22:13;0.68;;;0.68;;
27424;SDS011;15244;49.088;11.886;2023-07-20T16:27:17;0.77;;;0.68;;
27424;SDS011;15244;49.088;11.886;2023-07-20T16:32:21;0.90;;;0.85;;
27424;SDS011;15244;49.088;11.886;2023-07-20T16:37:26;1.00;;;1.00;;
27424;SDS011;15244;49.088;11.886;2023-07-20T16:42:33;1.65;;;0.50;;
27424;SDS011;15244;49.088;11.886;2023-07-20T16:47:40;2.63;;;0.85;;
27424;SDS011;15244;49.088;11.886;2023-07-20T16:52:43;0.73;;;0.73;;
27424;SDS011;15244;49.088;11.886;2023-07-20T16:57:47;0.90;;;0.90;;
27424;SDS011;15244;49.088;11.886;2023-07-20T17:02:52;2.88;;;0.70;;
27424;SDS011;15244;49.088;11.886;2023-07-20T17:07:58;2.13;;;0.90;;
27424;SDS011;15244;49.088;11.886;2023-07-20T17:13:00;2.97;;;0.75;;
27424;SDS011;15244;49.088;11.886;2023-07-20T17:18:06;1.10;;;0.90;;
27424;SDS011;15244;49.088;11.886;2023-07-20T17:23:10;1.35;;;0.80;;
27424;SDS011;15244;49.088;11.886;2023-07-20T17:28:13;0.85;;;0.70;;
27424;SDS011;15244;49.088;11.886;2023-07-20T17:33:18;0.88;;;0.75;;
27424;SDS011;15244;49.088;11.886;2023-07-20T17:38:21;0.93;;;0.88;;
27424;SDS011;15244;49.088;11.886;2023-07-20T17:43:26;0.80;;;0.80;;
27424;SDS011;15244;49.088;11.886;2023-07-20T17:48:41;1.10;;;0.95;;
27424;SDS011;15244;49.088;11.886;2023-07-20T17:53:45;0.98;;;0.60;;
27424;SDS011;15244;49.088;11.886;2023-07-20T17:58:50;3.08;;;0.90;;
27424;SDS011;15244;49.088;11.886;2023-07-20T18:03:57;1.75;;;0.70;;
27424;SDS011;15244;49.088;11.886;2023-07-20T18:08:59;0.70;;;0.70;;
27424;SDS011;15244;49.088;11.886;2023-07-20T18:14:03;1.90;;;0.82;;
27424;SDS011;15244;49.088;11.886;2023-07-20T18:19:09;0.70;;;0.70;;
27424;SDS011;15244;49.088;11.886;2023-07-20T18:24:14;1.10;;;0.75;;
27424;SDS011;15244;49.088;11.886;2023-07-20T18:29:21;1.05;;;0.98;;
27424;SDS011;15244;49.088;11.886;2023-07-20T18:34:26;2.33;;;0.75;;
27424;SDS011;15244;49.088;11.886;2023-07-20T18:39:27;0.88;;;0.80;;
27424;SDS011;15244;49.088;11.886;2023-07-20T18:44:32;0.88;;;0.88;;
27424;SDS011;15244;49.088;11.886;2023-07-20T18:49:33;1.80;;;0.80;;
27424;SDS011;15244;49.088;11.886;2023-07-20T18:54:42;0.75;;;0.70;;
27424;SDS011;15244;49.088;11.886;2023-07-20T18:59:47;0.75;;;0.75;;
27424;SDS011;15244;49.088;11.886;2023-07-20T19:04:48;1.00;;;0.90;;
27424;SDS011;15244;49.088;11.886;2023-07-20T19:09:53;1.02;;;0.85;;
27424;SDS011;15244;49.088;11.886;2023-07-20T19:14:57;0.73;;;0.73;;
27424;SDS011;15244;49.088;11.886;2023-07-20T19:19:59;1.20;;;0.80;;
27424;SDS011;15244;49.088;11.886;2023-07-20T19:25:04;0.80;;;0.80;;
27424;SDS011;15244;49.088;11.886;2023-07-20T19:30:09;2.05;;;1.13;;
27424;SDS011;15244;49.088;11.886;2023-07-20T19:35:11;1.60;;;0.93;;
27424;SDS011;15244;49.088;11.886;2023-07-20T19:40:15;0.95;;;0.80;;
27424;SDS011;15244;49.088;11.886;2023-07-20T19:45:19;0.80;;;0.80;;
27424;SDS011;15244;49.088;11.886;2023-07-20T19:50:21;2.40;;;0.90;;
27424;SDS011;15244;49.088;11.886;2023-07-20T19:55:27;0.82;;;0.82;;
27424;SDS011;15244;49.088;11.886;2023-07-20T20:00:34;0.80;;;0.80;;
27424;SDS011;15244;49.088;11.886;2023-07-20T20:05:44;1.50;;;0.80;;
27424;SDS011;15244;49.088;11.886;2023-07-20T20:10:50;0.88;;;0.88;;
27424;SDS011;15244;49.088;11.886;2023-07-20T20:16:14;1.17;;;0.90;;
27424;SDS011;15244;49.088;11.886;2023-07-20T20:21:16;1.90;;;1.05;;
27424;SDS011;15244;49.088;11.886;2023-07-20T20:26:21;1.15;;;1.00;;
27424;SDS011;15244;49.088;11.886;2023-07-20T20:31:25;1.10;;;1.00;;
27424;SDS011;15244;49.088;11.886;2023-07-20T20:36:29;0.95;;;0.95;;
27424;SDS011;15244;49.088;11.886;2023-07-20T20:41:35;1.33;;;1.00;;
27424;SDS011;15244;49.088;11.886;2023-07-20T20:46:45;2.25;;;1.00;;
27424;SDS011;15244;49.088;11.886;2023-07-20T20:51:51;0.70;;;0.70;;
27424;SDS011;15244;49.088;11.886;2023-07-20T20:56:53;1.88;;;1.15;;
27424;SDS011;15244;49.088;11.886;2023-07-20T21:02:00;1.40;;;1.00;;
27424;SDS011;15244;49.088;11.886;2023-07-20T21:07:12;1.45;;;1.08;;
27424;SDS011;15244;49.088;11.886;2023-07-20T21:12:18;1.40;;;1.30;;
27424;SDS011;15244;49.088;11.886;2023-07-20T21:17:24;1.05;;;1.05;;
27424;SDS011;15244;49.088;11.886;2023-07-20T21:22:32;2.38;;;1.10;;
27424;SDS011;15244;49.088;11.886;2023-07-20T21:27:34;1.60;;;1.17;;
27424;SDS011;15244;49.088;11.886;2023-07-20T21:32:39;1.92;;;0.88;;
27424;SDS011;15244;49.088;11.886;2023-07-20T21:37:41;2.50;;;1.00;;
27424;SDS011;15244;49.088;11.886;2023-07-20T21:42:43;1.85;;;1.30;;
27424;SDS011;15244;49.088;11.886;2023-07-20T21:47:49;2.40;;;1.25;;
27424;SDS011;15244;49.088;11.886;2023-07-20T21:52:51;1.17;;;1.02;;
27424;SDS011;15244;49.088;11.886;2023-07-20T21:57:52;1.27;;;1.17;;
27424;SDS011;15244;49.088;11.886;2023-07-20T22:02:57;1.10;;;1.00;;
27424;SDS011;15244;49.088;11.886;2023-07-20T22:08:03;1.17;;;1.08;;
27424;SDS011;15244;49.088;11.886;2023-07-20T22:13:10;1.40;;;1.30;;
27424;SDS011;15244;49.088;11.886;2023-07-20T22:18:14;2.15;;;1.33;;
27424;SDS011;15244;49.088;11.886;2023-07-20T22:23:34;1.20;;;1.10;;
27424;SDS011;15244;49.088;11.886;2023-07-20T22:28:36;1.27;;;1.27;;
27424;SDS011;15244;49.088;11.886;2023-07-20T22:33:39;1.30;;;1.20;;
27424;SDS011;15244;49.088;11.886;2023-07-20T22:38:42;1.00;;;1.00;;
27424;SDS011;15244;49.088;11.886;2023-07-20T22:43:46;1.50;;;1.40;;
27424;SDS011;15244;49.088;11.886;2023-07-20T22:48:52;1.48;;;1.35;;
27424;SDS011;15244;49.088;11.886;2023-07-20T22:53:56;1.50;;;1.40;;
27424;SDS011;15244;49.088;11.886;2023-07-20T22:59:00;3.35;;;1.02;;
27424;SDS011;15244;49.088;11.886;2023-07-20T23:04:06;2.15;;;1.20;;
27424;SDS011;15244;49.088;11.886;2023-07-20T23:09:12;2.92;;;1.70;;
27424;SDS011;15244;49.088;11.886;2023-07-20T23:14:15;1.73;;;1.13;;
27424;SDS011;15244;49.088;11.886;2023-07-20T23:19:18;1.85;;;1.40;;
27424;SDS011;15244;49.088;11.886;2023-07-20T23:24:21;2.45;;;1.70;;
27424;SDS011;15244;49.088;11.886;2023-07-20T23:29:26;1.67;;;1.40;;
27424;SDS011;15244;49.088;11.886;2023-07-20T23:34:31;2.08;;;1.38;;
27424;SDS011;15244;49.088;11.886;2023-07-20T23:39:38;1.85;;;1.40;;
27424;SDS011;15244;49.088;11.886;2023-07-20T23:44:40;1.30;;;1.20;;
27424;SDS011;15244;49.088;11.886;2023-07-20T23:49:46;1.60;;;1.40;;
27424;SDS011;15244;49.088;11.886;2023-07-20T23:54:49;1.33;;;1.33;;
27424;SDS011;15244;49.088;11.886;2023-07-20T23:59:57;1.35;;;1.25;;
